createdAt,value
2023-05-06T00:00:39.280Z,121.67
2023-05-06T00:01:39.365Z,123.20
2023-05-06T00:02:39.450Z,126.88
2023-05-06T00:03:39.640Z,130.20
2023-05-06T00:04:39.543Z,131.69
2023-05-06T00:05:39.562Z,124.08
2023-05-06T00:06:39.626Z,127.27
2023-05-06T00:07:39.705Z,128.10
2023-05-06T00:08:39.792Z,125.80
2023-05-06T00:09:39.817Z,127.76
2023-05-06T00:10:39.860Z,126.22
2023-05-06T00:11:39.942Z,123.81
2023-05-06T00:12:40.151Z,120.67
2023-05-06T00:13:40.043Z,121.88
2023-05-06T00:14:40.062Z,120.84
2023-05-06T00:15:40.123Z,123.54
2023-05-06T00:16:40.316Z,122.47
2023-05-06T00:17:40.211Z,122.85
2023-05-06T00:18:40.265Z,119.65
2023-05-06T00:19:40.330Z,122.17
2023-05-06T00:20:40.364Z,126.99
2023-05-06T00:21:40.392Z,124.40
2023-05-06T00:22:40.465Z,126.59
2023-05-06T00:23:40.517Z,124.14
2023-05-06T00:24:40.589Z,124.97
2023-05-06T00:25:40.633Z,125.35
2023-05-06T00:26:40.710Z,126.66
2023-05-06T00:27:40.746Z,125.77
2023-05-06T00:28:40.883Z,123.50
2023-05-06T00:29:40.864Z,126.87
2023-05-06T00:30:40.937Z,127.84
2023-05-06T00:31:41.066Z,121.35
2023-05-06T00:32:41.118Z,121.79
2023-05-06T00:33:41.119Z,122.47
2023-05-06T00:34:41.189Z,120.26
2023-05-06T00:35:41.235Z,123.12
2023-05-06T00:36:41.284Z,126.77
2023-05-06T00:37:41.352Z,127.43
2023-05-06T00:38:41.404Z,124.26
2023-05-06T00:39:41.450Z,130.16
2023-05-06T00:40:41.505Z,132.99
2023-05-06T00:41:41.574Z,127.44
2023-05-06T00:42:41.617Z,127.52
2023-05-06T00:43:41.696Z,127.94
2023-05-06T00:44:41.902Z,126.69
2023-05-06T00:45:41.837Z,127.40
2023-05-06T00:46:41.886Z,126.66
2023-05-06T00:47:42.087Z,128.91
2023-05-06T00:48:41.935Z,129.41
2023-05-06T00:49:42.016Z,130.97
2023-05-06T00:50:42.056Z,128.76
2023-05-06T00:51:42.098Z,129.97
2023-05-06T00:52:42.153Z,131.39
2023-05-06T00:53:42.201Z,125.68
2023-05-06T00:54:42.269Z,127.57
2023-05-06T00:55:42.313Z,127.64
2023-05-06T00:56:42.308Z,131.66
2023-05-06T00:57:42.396Z,131.16
2023-05-06T00:58:42.421Z,133.07
2023-05-06T00:59:42.480Z,133.61
2023-05-06T01:00:42.524Z,135.98
2023-05-06T01:01:42.547Z,132.76
2023-05-06T01:02:47.498Z,130.89
2023-05-06T01:03:43.735Z,131.38
2023-05-06T01:04:42.637Z,133.03
2023-05-06T01:05:42.590Z,135.43
2023-05-06T01:06:42.573Z,140.64
2023-05-06T01:07:42.556Z,141.22
2023-05-06T01:08:42.558Z,143.65
2023-05-06T01:09:42.543Z,144.55
2023-05-06T01:10:42.572Z,143.96
2023-05-06T01:11:42.544Z,147.80
2023-05-06T01:12:42.586Z,150.92
2023-05-06T01:13:42.590Z,150.01
2023-05-06T01:14:42.665Z,149.28
2023-05-06T01:15:42.743Z,147.35
2023-05-06T01:16:42.916Z,145.42
2023-05-06T01:17:42.884Z,147.38
2023-05-06T01:18:42.867Z,147.61
2023-05-06T01:19:42.910Z,147.35
2023-05-06T01:20:42.928Z,136.99
2023-05-06T01:21:42.939Z,132.62
2023-05-06T01:22:42.985Z,138.83
2023-05-06T01:23:43.046Z,139.73
2023-05-06T01:24:43.831Z,133.85
2023-05-06T01:25:43.069Z,134.14
2023-05-06T01:26:43.079Z,133.14
2023-05-06T01:27:43.108Z,138.86
2023-05-06T01:28:43.123Z,137.90
2023-05-06T01:29:43.171Z,135.23
2023-05-06T01:30:43.267Z,139.63
2023-05-06T01:31:43.258Z,135.60
2023-05-06T01:32:43.357Z,131.70
2023-05-06T01:33:43.325Z,123.62
2023-05-06T01:34:43.355Z,117.25
2023-05-06T01:35:43.450Z,113.66
2023-05-06T01:36:43.487Z,106.28
2023-05-06T01:37:43.496Z,103.03
2023-05-06T01:38:43.530Z,110.03
2023-05-06T01:39:43.555Z,113.02
2023-05-06T01:40:43.556Z,108.38
2023-05-06T01:41:43.573Z,110.24
2023-05-06T01:42:43.604Z,112.43
2023-05-06T01:43:43.632Z,111.45
2023-05-06T01:44:43.681Z,118.76
2023-05-06T01:45:43.674Z,116.69
2023-05-06T01:46:43.709Z,121.19
2023-05-06T01:47:43.721Z,123.47
2023-05-06T01:48:43.815Z,123.73
2023-05-06T01:49:43.777Z,127.31
2023-05-06T01:50:43.797Z,126.93
2023-05-06T01:51:43.831Z,124.22
2023-05-06T01:52:43.868Z,124.80
2023-05-06T01:53:43.869Z,120.60
2023-05-06T01:54:43.893Z,128.24
2023-05-06T01:55:43.871Z,127.00
2023-05-06T01:56:43.871Z,125.84
2023-05-06T01:57:43.896Z,123.84
2023-05-06T01:58:43.951Z,118.81
2023-05-06T01:59:43.959Z,121.21
2023-05-06T02:00:43.984Z,124.97
2023-05-06T02:01:44.027Z,124.80
2023-05-06T02:02:44.095Z,115.93
2023-05-06T02:03:44.144Z,114.74
2023-05-06T02:04:44.107Z,112.00
2023-05-06T02:05:44.132Z,112.31
2023-05-06T02:06:44.250Z,106.65
2023-05-06T02:07:44.265Z,108.36
2023-05-06T02:08:44.268Z,101.84
2023-05-06T02:09:44.249Z,112.77
2023-05-06T02:10:44.277Z,109.62
2023-05-06T02:11:44.275Z,106.22
2023-05-06T02:12:44.336Z,113.67
2023-05-06T02:13:44.365Z,120.23
2023-05-06T02:14:44.478Z,116.91
2023-05-06T02:15:44.575Z,120.52
2023-05-06T02:16:44.562Z,118.28
2023-05-06T02:17:44.580Z,118.01
2023-05-06T02:18:44.615Z,108.74
2023-05-06T02:19:44.570Z,97.09
2023-05-06T02:20:44.627Z,92.70
2023-05-06T02:21:44.615Z,83.68
2023-05-06T02:22:44.642Z,85.76
2023-05-06T02:23:44.665Z,84.81
2023-05-06T02:24:44.687Z,90.79
2023-05-06T02:25:44.703Z,83.90
2023-05-06T02:26:44.743Z,83.36
2023-05-06T02:27:44.760Z,95.67
2023-05-06T02:28:44.817Z,101.17
2023-05-06T02:29:44.902Z,94.60
2023-05-06T02:30:45.030Z,86.82
2023-05-06T02:31:45.047Z,82.46
2023-05-06T02:32:45.096Z,84.34
2023-05-06T02:33:45.105Z,88.12
2023-05-06T02:34:45.104Z,101.68
2023-05-06T02:35:45.126Z,109.01
2023-05-06T02:36:45.169Z,106.00
2023-05-06T02:37:45.223Z,100.40
2023-05-06T02:38:45.358Z,107.25
2023-05-06T02:39:45.430Z,105.23
2023-05-06T02:40:45.497Z,103.49
2023-05-06T02:41:45.601Z,100.20
2023-05-06T02:42:45.660Z,107.07
2023-05-06T02:43:45.660Z,99.19
2023-05-06T02:44:45.709Z,95.57
2023-05-06T02:45:45.764Z,94.76
2023-05-06T02:46:45.749Z,95.36
2023-05-06T02:47:45.818Z,93.90
2023-05-06T02:48:45.834Z,88.81
2023-05-06T02:49:45.952Z,92.03
2023-05-06T02:50:45.955Z,88.27
2023-05-06T02:51:45.977Z,89.30
2023-05-06T02:52:46.047Z,89.48
2023-05-06T02:53:46.076Z,88.44
2023-05-06T02:54:46.115Z,97.26
2023-05-06T02:55:46.124Z,100.28
2023-05-06T02:56:46.168Z,100.37
2023-05-06T02:57:46.196Z,101.58
2023-05-06T02:58:46.280Z,97.12
2023-05-06T02:59:46.252Z,89.48
2023-05-06T03:00:46.343Z,90.52
2023-05-06T03:01:46.299Z,89.65
2023-05-06T03:02:46.363Z,92.90
2023-05-06T03:03:46.455Z,93.36
2023-05-06T03:04:46.482Z,94.85
2023-05-06T03:05:46.497Z,103.30
2023-05-06T03:06:46.534Z,105.80
2023-05-06T03:07:46.582Z,111.62
2023-05-06T03:08:46.651Z,112.21
2023-05-06T03:09:46.613Z,114.39
2023-05-06T03:10:46.646Z,111.56
2023-05-06T03:11:46.693Z,116.54
2023-05-06T03:12:46.737Z,118.56
2023-05-06T03:13:46.749Z,117.23
2023-05-06T03:14:46.756Z,117.48
2023-05-06T03:15:46.785Z,117.55
2023-05-06T03:16:46.888Z,114.78
2023-05-06T03:17:46.825Z,116.67
2023-05-06T03:18:46.901Z,116.59
2023-05-06T03:19:46.956Z,115.47
2023-05-06T03:20:46.975Z,112.99
2023-05-06T03:21:47.030Z,115.79
2023-05-06T03:22:47.031Z,116.68
2023-05-06T03:23:47.028Z,116.68
2023-05-06T03:24:47.117Z,114.78
2023-05-06T03:25:47.173Z,117.29
2023-05-06T03:26:47.167Z,114.81
2023-05-06T03:27:47.202Z,115.69
2023-05-06T03:28:47.239Z,116.76
2023-05-06T03:29:47.242Z,114.74
2023-05-06T03:30:47.274Z,114.84
2023-05-06T03:31:47.353Z,117.88
2023-05-06T03:32:47.386Z,117.58
2023-05-06T03:33:47.408Z,114.96
2023-05-06T03:34:47.432Z,116.89
2023-05-06T03:35:47.456Z,113.63
2023-05-06T03:36:47.478Z,116.51
2023-05-06T03:37:47.503Z,116.32
2023-05-06T03:38:47.534Z,115.10
2023-05-06T03:39:47.553Z,116.67
2023-05-06T03:40:47.667Z,116.61
2023-05-06T03:41:47.764Z,118.66
2023-05-06T03:42:47.857Z,117.08
2023-05-06T03:43:47.862Z,118.42
2023-05-06T03:44:47.913Z,121.10
2023-05-06T03:45:47.946Z,118.13
2023-05-06T03:46:47.962Z,118.39
2023-05-06T03:47:48.438Z,118.30
2023-05-06T03:48:48.018Z,116.98
2023-05-06T03:49:48.055Z,119.58
2023-05-06T03:50:48.045Z,119.51
2023-05-06T03:51:48.069Z,116.33
2023-05-06T03:52:48.109Z,113.11
2023-05-06T03:53:48.115Z,116.11
2023-05-06T03:54:48.156Z,115.16
2023-05-06T03:55:48.257Z,115.97
2023-05-06T03:57:51.505Z,25.00
2023-05-06T03:58:51.446Z,25.00
2023-05-06T03:59:51.431Z,25.00
2023-05-06T04:00:51.445Z,25.00
2023-05-06T04:01:51.490Z,25.00
2023-05-06T04:02:51.516Z,25.42
2023-05-06T04:03:51.449Z,26.33
2023-05-06T04:04:51.393Z,25.38
2023-05-06T04:05:51.412Z,27.96
2023-05-06T04:06:51.402Z,25.52
2023-05-06T04:07:51.399Z,25.30
2023-05-06T04:08:51.389Z,25.07
2023-05-06T04:09:51.378Z,32.28
2023-05-06T04:10:51.376Z,37.33
2023-05-06T04:11:51.361Z,38.19
2023-05-06T04:12:51.401Z,38.72
2023-05-06T04:13:51.363Z,40.38
2023-05-06T04:14:51.341Z,40.47
2023-05-06T04:15:51.360Z,36.84
2023-05-06T04:16:51.325Z,37.09
2023-05-06T04:17:51.359Z,37.68
2023-05-06T04:18:51.326Z,38.16
2023-05-06T04:19:51.302Z,38.59
2023-05-06T04:20:51.318Z,41.97
2023-05-06T04:21:51.309Z,39.43
2023-05-06T04:22:51.309Z,40.82
2023-05-06T04:23:51.291Z,40.76
2023-05-06T04:24:51.277Z,39.34
2023-05-06T04:25:51.269Z,42.67
2023-05-06T04:26:51.262Z,42.25
2023-05-06T04:27:51.239Z,42.74
2023-05-06T04:28:51.239Z,43.67
2023-05-06T04:29:51.292Z,39.51
2023-05-06T04:30:51.226Z,37.38
2023-05-06T04:31:51.250Z,38.99
2023-05-06T04:32:51.281Z,40.36
2023-05-06T04:33:51.211Z,42.05
2023-05-06T04:34:51.217Z,44.95
2023-05-06T04:35:51.209Z,43.43
2023-05-06T04:36:51.170Z,42.01
2023-05-06T04:37:51.189Z,45.88
2023-05-06T04:38:51.176Z,44.57
2023-05-06T04:39:51.167Z,46.03
2023-05-06T04:40:51.165Z,47.28
2023-05-06T04:41:51.156Z,45.42
2023-05-06T04:42:51.153Z,44.24
2023-05-06T04:43:51.138Z,44.76
2023-05-06T04:44:51.140Z,44.32
2023-05-06T04:45:51.211Z,45.88
2023-05-06T04:46:51.121Z,46.01
2023-05-06T04:47:51.156Z,47.11
2023-05-06T04:48:51.089Z,47.63
2023-05-06T04:49:51.102Z,46.64
2023-05-06T04:50:51.101Z,47.47
2023-05-06T04:51:51.065Z,49.48
2023-05-06T04:52:51.067Z,48.06
2023-05-06T04:53:51.064Z,46.13
2023-05-06T04:54:51.073Z,44.15
2023-05-06T04:55:51.053Z,46.22
2023-05-06T04:56:51.033Z,45.28
2023-05-06T04:57:51.033Z,45.49
2023-05-06T04:58:51.020Z,44.89
2023-05-06T04:59:51.024Z,45.27
2023-05-06T05:00:51.008Z,47.06
2023-05-06T05:01:51.237Z,44.95
2023-05-06T05:02:51.210Z,44.92
2023-05-06T05:03:51.015Z,41.51
2023-05-06T05:04:50.970Z,37.21
2023-05-06T05:05:50.968Z,39.51
2023-05-06T05:06:50.959Z,40.79
2023-05-06T05:07:51.014Z,37.66
2023-05-06T05:08:51.021Z,34.49
2023-05-06T05:09:51.024Z,34.86
2023-05-06T05:10:51.070Z,33.96
2023-05-06T05:11:51.059Z,32.58
2023-05-06T05:12:51.138Z,32.50
2023-05-06T05:13:51.136Z,33.16
2023-05-06T05:14:51.116Z,29.94
2023-05-06T05:15:51.098Z,29.57
2023-05-06T05:16:51.193Z,28.71
2023-05-06T05:17:51.296Z,26.24
2023-05-06T05:18:51.121Z,29.28
2023-05-06T05:19:51.147Z,26.16
2023-05-06T05:20:51.162Z,25.73
2023-05-06T05:21:51.179Z,25.00
2023-05-06T05:22:51.186Z,27.00
2023-05-06T05:23:51.180Z,27.23
2023-05-06T05:24:51.177Z,40.44
2023-05-06T05:25:51.186Z,43.56
2023-05-06T05:26:51.172Z,36.69
2023-05-06T05:27:51.155Z,32.37
2023-05-06T05:28:51.156Z,28.96
2023-05-06T05:29:51.223Z,36.13
2023-05-06T05:30:51.252Z,35.96
2023-05-06T05:31:51.202Z,36.70
2023-05-06T05:32:51.234Z,36.36
2023-05-06T05:33:51.337Z,41.99
2023-05-06T05:34:51.205Z,37.42
2023-05-06T05:35:51.292Z,32.43
2023-05-06T05:36:51.282Z,27.62
2023-05-06T05:37:51.299Z,25.17
2023-05-06T05:38:51.293Z,27.30
2023-05-06T05:39:51.297Z,30.05
2023-05-06T05:40:51.291Z,32.69
2023-05-06T05:41:51.333Z,33.23
2023-05-06T05:42:51.338Z,36.61
2023-05-06T05:43:51.352Z,35.09
2023-05-06T05:44:51.343Z,40.19
2023-05-06T05:45:51.362Z,41.04
2023-05-06T05:46:51.467Z,43.73
2023-05-06T05:47:51.418Z,46.92
2023-05-06T05:48:51.371Z,44.94
2023-05-06T05:49:51.341Z,44.71
2023-05-06T05:50:51.342Z,48.71
2023-05-06T05:51:51.344Z,51.20
2023-05-06T05:52:51.358Z,52.09
2023-05-06T05:53:51.370Z,52.88
2023-05-06T05:54:51.351Z,54.85
2023-05-06T05:55:51.338Z,54.19
2023-05-06T05:56:51.380Z,55.48
2023-05-06T05:57:51.340Z,57.43
2023-05-06T05:58:51.439Z,57.75
2023-05-06T05:59:51.432Z,59.08
2023-05-06T06:00:51.423Z,59.10
2023-05-06T06:01:51.429Z,58.58
2023-05-06T06:02:51.452Z,53.92
2023-05-06T06:03:51.701Z,52.93
2023-05-06T06:04:51.555Z,51.60
2023-05-06T06:05:51.408Z,51.35
2023-05-06T06:06:51.400Z,53.75
2023-05-06T06:07:51.493Z,62.33
2023-05-06T06:08:51.603Z,61.62
2023-05-06T06:09:51.586Z,59.90
2023-05-06T06:10:51.590Z,58.13
2023-05-06T06:11:51.578Z,62.65
2023-05-06T06:12:51.602Z,66.60
2023-05-06T06:13:51.568Z,66.72
2023-05-06T06:14:51.618Z,66.74
2023-05-06T06:15:51.631Z,67.18
2023-05-06T06:16:51.610Z,66.98
2023-05-06T06:17:51.633Z,67.21
2023-05-06T06:18:51.621Z,66.66
2023-05-06T06:19:51.616Z,66.45
2023-05-06T06:20:53.275Z,68.21
2023-05-06T06:21:51.658Z,71.09
2023-05-06T06:22:51.584Z,74.27
2023-05-06T06:23:51.577Z,71.88
2023-05-06T06:24:51.575Z,70.34
2023-05-06T06:25:51.692Z,74.74
2023-05-06T06:26:51.669Z,76.28
2023-05-06T06:27:51.665Z,75.46
2023-05-06T06:28:51.677Z,74.67
2023-05-06T06:29:51.650Z,76.22
2023-05-06T06:30:51.660Z,75.98
2023-05-06T06:31:51.782Z,77.69
2023-05-06T06:32:51.749Z,75.15
2023-05-06T06:33:51.745Z,73.02
2023-05-06T06:34:51.749Z,74.29
2023-05-06T06:35:51.759Z,72.76
2023-05-06T06:36:51.732Z,73.91
2023-05-06T06:37:51.921Z,72.98
2023-05-06T06:38:51.811Z,71.87
2023-05-06T06:39:51.808Z,73.40
2023-05-06T06:40:51.808Z,74.90
2023-05-06T06:41:51.820Z,73.13
2023-05-06T06:42:51.823Z,71.37
2023-05-06T06:43:51.914Z,72.10
2023-05-06T06:44:52.024Z,73.26
2023-05-06T06:45:52.189Z,72.42
2023-05-06T06:46:52.207Z,71.88
2023-05-06T06:47:52.376Z,69.48
2023-05-06T06:48:52.313Z,70.74
2023-05-06T06:49:52.315Z,69.55
2023-05-06T06:50:52.376Z,67.28
2023-05-06T06:51:52.345Z,68.56
2023-05-06T06:52:52.336Z,68.05
2023-05-06T06:53:52.442Z,67.38
2023-05-06T06:54:52.397Z,67.16
2023-05-06T06:55:52.426Z,62.93
2023-05-06T06:56:52.430Z,62.37
2023-05-06T06:57:52.450Z,64.23
2023-05-06T06:58:53.397Z,66.20
2023-05-06T06:59:52.464Z,66.76
2023-05-06T07:00:52.485Z,65.69
2023-05-06T07:01:52.451Z,67.71
2023-05-06T07:02:52.584Z,70.43
2023-05-06T07:03:52.584Z,67.95
2023-05-06T07:04:52.578Z,67.37
2023-05-06T07:05:52.589Z,68.16
2023-05-06T07:06:52.643Z,64.65
2023-05-06T07:07:52.616Z,66.67
2023-05-06T07:08:52.692Z,68.27
2023-05-06T07:09:52.724Z,68.85
2023-05-06T07:10:52.770Z,65.07
2023-05-06T07:11:52.734Z,65.12
2023-05-06T07:12:52.820Z,64.58
2023-05-06T07:13:52.736Z,61.06
2023-05-06T07:14:52.756Z,61.79
2023-05-06T07:15:52.806Z,59.28
2023-05-06T07:16:52.841Z,58.88
2023-05-06T07:17:52.863Z,58.03
2023-05-06T07:18:52.811Z,60.64
2023-05-06T07:19:52.809Z,57.53
2023-05-06T07:20:52.790Z,54.97
2023-05-06T07:21:52.892Z,57.20
2023-05-06T07:22:52.889Z,56.74
2023-05-06T07:23:52.888Z,54.25
2023-05-06T07:24:52.906Z,53.00
2023-05-06T07:25:52.943Z,53.71
2023-05-06T07:26:52.884Z,54.62
2023-05-06T07:27:52.965Z,54.45
2023-05-06T07:28:52.963Z,56.26
2023-05-06T07:29:52.967Z,53.65
2023-05-06T07:30:52.997Z,54.96
2023-05-06T07:31:52.993Z,53.36
2023-05-06T07:32:53.044Z,50.63
2023-05-06T07:33:53.027Z,53.50
2023-05-06T07:34:53.018Z,54.80
2023-05-06T07:35:53.060Z,55.00
2023-05-06T07:36:53.033Z,53.65
2023-05-06T07:37:53.058Z,51.60
2023-05-06T07:38:53.083Z,54.01
2023-05-06T07:39:53.119Z,51.92
2023-05-06T07:40:53.107Z,46.21
2023-05-06T07:41:53.177Z,46.29
2023-05-06T07:42:53.162Z,40.76
2023-05-06T07:43:53.151Z,46.71
2023-05-06T07:44:53.132Z,46.26
2023-05-06T07:45:53.234Z,49.13
2023-05-06T07:46:53.250Z,53.67
2023-05-06T07:47:53.328Z,53.20
2023-05-06T07:48:53.227Z,47.11
2023-05-06T07:49:53.208Z,39.33
2023-05-06T07:50:53.206Z,42.12
2023-05-06T07:51:53.209Z,47.73
2023-05-06T07:52:53.190Z,47.60
2023-05-06T07:53:53.210Z,54.26
2023-05-06T07:54:53.250Z,52.46
2023-05-06T07:55:53.271Z,49.99
2023-05-06T07:56:53.263Z,52.73
2023-05-06T07:57:53.322Z,52.66
2023-05-06T07:58:53.307Z,53.58
2023-05-06T07:59:53.327Z,53.57
2023-05-06T08:00:53.344Z,51.38
2023-05-06T08:01:53.388Z,50.84
2023-05-06T08:02:53.573Z,53.13
2023-05-06T08:03:53.590Z,51.09
2023-05-06T08:04:53.705Z,50.20
2023-05-06T08:05:53.596Z,46.01
2023-05-06T08:06:53.627Z,48.20
2023-05-06T08:07:53.650Z,48.31
2023-05-06T08:08:53.743Z,49.11
2023-05-06T08:09:53.767Z,49.69
2023-05-06T08:10:53.809Z,49.89
2023-05-06T08:11:53.785Z,53.60
2023-05-06T08:12:53.855Z,51.26
2023-05-06T08:13:53.906Z,48.76
2023-05-06T08:14:53.875Z,48.35
2023-05-06T08:15:54.021Z,47.11
2023-05-06T08:16:53.996Z,49.02
2023-05-06T08:17:53.994Z,50.74
2023-05-06T08:18:54.000Z,47.23
2023-05-06T08:19:54.019Z,50.21
2023-05-06T08:20:54.046Z,44.07
2023-05-06T08:21:54.113Z,43.88
2023-05-06T08:22:54.166Z,31.05
2023-05-06T08:23:54.277Z,43.68
2023-05-06T08:24:54.277Z,45.24
2023-05-06T08:25:54.365Z,43.88
2023-05-06T08:26:54.346Z,46.97
2023-05-06T08:27:54.369Z,47.51
2023-05-06T08:28:54.403Z,48.59
2023-05-06T08:29:54.485Z,46.12
2023-05-06T08:30:54.475Z,41.24
2023-05-06T08:31:54.559Z,45.00
2023-05-06T08:32:54.565Z,43.59
2023-05-06T08:33:54.932Z,43.74
2023-05-06T08:34:54.570Z,44.50
2023-05-06T08:35:54.604Z,44.63
2023-05-06T08:36:54.617Z,50.69
2023-05-06T08:37:54.636Z,45.56
2023-05-06T08:38:54.680Z,44.54
2023-05-06T08:39:54.704Z,44.64
2023-05-06T08:40:54.782Z,42.50
2023-05-06T08:41:54.823Z,40.85
2023-05-06T08:42:54.815Z,29.15
2023-05-06T08:43:54.831Z,26.65
2023-05-06T08:44:54.833Z,25.57
2023-05-06T08:45:54.930Z,26.60
2023-05-06T08:46:54.904Z,28.59
2023-05-06T08:47:55.032Z,25.18
2023-05-06T08:48:54.983Z,30.02
2023-05-06T08:49:55.005Z,39.35
2023-05-06T08:50:55.090Z,35.20
2023-05-06T08:51:55.077Z,43.03
2023-05-06T08:52:55.187Z,46.66
2023-05-06T08:53:55.192Z,43.72
2023-05-06T08:54:55.200Z,44.84
2023-05-06T08:55:55.204Z,43.60
2023-05-06T08:56:55.255Z,45.56
2023-05-06T08:57:55.272Z,45.19
2023-05-06T08:58:55.278Z,49.46
2023-05-06T08:59:55.358Z,53.19
2023-05-06T09:00:55.434Z,56.76
2023-05-06T09:01:55.592Z,55.16
2023-05-06T09:02:55.518Z,56.70
2023-05-06T09:03:55.481Z,57.59
2023-05-06T09:04:55.537Z,59.46
2023-05-06T09:05:55.597Z,58.85
2023-05-06T09:06:55.631Z,57.88
2023-05-06T09:07:55.657Z,59.46
2023-05-06T09:08:55.672Z,62.26
2023-05-06T09:09:55.718Z,64.64
2023-05-06T09:10:55.757Z,66.48
2023-05-06T09:11:55.777Z,66.25
2023-05-06T09:12:55.864Z,65.81
2023-05-06T09:13:55.920Z,66.38
2023-05-06T09:14:55.932Z,66.99
2023-05-06T09:15:55.983Z,69.30
2023-05-06T09:16:56.069Z,71.33
2023-05-06T09:17:56.197Z,71.57
2023-05-06T09:18:56.089Z,68.89
2023-05-06T09:19:56.145Z,69.20
2023-05-06T09:20:56.198Z,71.64
2023-05-06T09:21:56.267Z,72.26
2023-05-06T09:22:56.305Z,73.61
2023-05-06T09:23:56.328Z,72.78
2023-05-06T09:24:56.370Z,73.33
2023-05-06T09:25:56.408Z,71.42
2023-05-06T09:26:56.477Z,73.84
2023-05-06T09:27:56.500Z,69.15
2023-05-06T09:28:56.552Z,72.17
2023-05-06T09:29:56.581Z,73.56
2023-05-06T09:30:56.694Z,75.57
2023-05-06T09:31:56.757Z,71.91
2023-05-06T09:32:56.799Z,69.43
2023-05-06T09:33:56.875Z,68.87
2023-05-06T09:34:56.910Z,68.13
2023-05-06T09:35:56.929Z,68.47
2023-05-06T09:36:56.967Z,67.14
2023-05-06T09:37:56.998Z,64.38
2023-05-06T09:38:57.009Z,66.15
2023-05-06T09:39:57.060Z,68.27
2023-05-06T09:40:57.149Z,70.40
2023-05-06T09:41:57.183Z,72.01
2023-05-06T09:42:57.209Z,67.63
2023-05-06T09:43:57.256Z,68.90
2023-05-06T09:44:59.808Z,66.22
2023-05-06T09:45:58.224Z,75.12
2023-05-06T09:46:57.255Z,74.14
2023-05-06T09:47:57.308Z,74.53
2023-05-06T09:48:57.262Z,71.39
2023-05-06T09:49:57.284Z,69.43
2023-05-06T09:50:58.356Z,71.18
2023-05-06T09:51:57.218Z,72.79
2023-05-06T09:52:57.202Z,70.56
2023-05-06T09:53:57.191Z,67.53
2023-05-06T09:54:57.210Z,68.16
2023-05-06T09:55:57.211Z,66.51
2023-05-06T09:56:58.831Z,63.92
2023-05-06T09:57:57.172Z,64.22
2023-05-06T09:58:57.156Z,65.06
2023-05-06T09:59:57.147Z,65.50
2023-05-06T10:00:57.156Z,67.73
2023-05-06T10:01:57.176Z,70.32
2023-05-06T10:02:57.234Z,70.79
2023-05-06T10:03:57.325Z,67.49
2023-05-06T10:04:57.309Z,68.29
2023-05-06T10:05:57.121Z,68.58
2023-05-06T10:06:57.107Z,72.01
2023-05-06T10:07:57.100Z,73.14
2023-05-06T10:08:57.087Z,72.53
2023-05-06T10:09:57.079Z,71.39
2023-05-06T10:10:57.099Z,71.08
2023-05-06T10:11:57.093Z,71.81
2023-05-06T10:12:57.069Z,72.77
2023-05-06T10:13:57.056Z,70.25
2023-05-06T10:14:57.055Z,71.03
2023-05-06T10:15:57.054Z,70.98
2023-05-06T10:16:57.049Z,73.49
2023-05-06T10:17:57.070Z,73.74
2023-05-06T10:18:57.022Z,73.55
2023-05-06T10:19:56.997Z,73.07
2023-05-06T10:20:57.009Z,74.06
2023-05-06T10:21:57.115Z,73.61
2023-05-06T10:22:56.978Z,69.59
2023-05-06T10:23:56.971Z,68.40
2023-05-06T10:24:56.965Z,69.78
2023-05-06T10:25:56.977Z,70.43
2023-05-06T10:26:56.965Z,70.73
2023-05-06T10:27:56.936Z,69.21
2023-05-06T10:28:56.955Z,70.72
2023-05-06T10:29:56.959Z,70.24
2023-05-06T10:30:56.960Z,71.05
2023-05-06T10:31:56.956Z,73.34
2023-05-06T10:32:56.974Z,75.86
2023-05-06T10:33:56.910Z,73.04
2023-05-06T10:34:56.896Z,70.61
2023-05-06T10:35:56.952Z,69.36
2023-05-06T10:36:56.876Z,70.02
2023-05-06T10:37:56.886Z,71.65
2023-05-06T10:38:56.967Z,67.16
2023-05-06T10:39:56.968Z,70.11
2023-05-06T10:40:56.996Z,74.85
2023-05-06T10:41:57.050Z,71.07
2023-05-06T10:42:57.083Z,73.87
2023-05-06T10:43:57.429Z,73.44
2023-05-06T10:44:57.178Z,71.07
2023-05-06T10:45:57.262Z,68.12
2023-05-06T10:46:57.234Z,68.33
2023-05-06T10:47:57.378Z,69.43
2023-05-06T10:48:57.309Z,68.15
2023-05-06T10:49:57.322Z,72.62
2023-05-06T10:50:57.416Z,68.59
2023-05-06T10:51:57.435Z,64.97
2023-05-06T10:52:57.522Z,64.42
2023-05-06T10:53:57.734Z,68.43
2023-05-06T10:54:57.717Z,68.68
2023-05-06T10:55:57.742Z,63.82
2023-05-06T10:56:57.798Z,65.47
2023-05-06T10:57:57.810Z,65.66
2023-05-06T10:58:57.816Z,64.92
2023-05-06T10:59:57.857Z,65.79
2023-05-06T11:00:57.920Z,63.84
2023-05-06T11:01:57.901Z,64.49
2023-05-06T11:02:58.078Z,64.70
2023-05-06T11:03:58.086Z,62.55
2023-05-06T11:04:58.108Z,64.32
2023-05-06T11:05:58.157Z,61.34
2023-05-06T11:06:58.178Z,57.45
2023-05-06T11:07:58.205Z,64.34
2023-05-06T11:08:58.272Z,66.98
2023-05-06T11:09:58.348Z,68.49
2023-05-06T11:10:58.349Z,66.12
2023-05-06T11:11:58.402Z,63.78
2023-05-06T11:12:58.552Z,66.90
2023-05-06T11:13:58.548Z,65.67
2023-05-06T11:14:58.577Z,65.55
2023-05-06T11:15:58.609Z,65.93
2023-05-06T11:16:58.686Z,65.13
2023-05-06T11:17:58.721Z,62.92
2023-05-06T11:18:58.706Z,60.40
2023-05-06T11:19:58.755Z,62.97
2023-05-06T11:20:58.823Z,61.76
2023-05-06T11:21:58.857Z,61.02
2023-05-06T11:22:58.900Z,58.81
2023-05-06T11:23:58.931Z,60.14
2023-05-06T11:24:58.980Z,57.09
2023-05-06T11:25:59.067Z,54.04
2023-05-06T11:26:59.060Z,55.92
2023-05-06T11:27:59.086Z,51.49
2023-05-06T11:28:59.169Z,53.02
2023-05-06T11:29:59.222Z,56.66
2023-05-06T11:30:59.357Z,54.33
2023-05-06T11:31:59.399Z,54.28
2023-05-06T11:32:59.536Z,59.03
2023-05-06T11:33:59.594Z,58.70
2023-05-06T11:34:59.676Z,56.41
2023-05-06T11:35:59.706Z,56.13
2023-05-06T11:36:59.743Z,56.96
2023-05-06T11:37:59.792Z,52.40
2023-05-06T11:38:59.782Z,51.40
2023-05-06T11:39:59.866Z,51.12
2023-05-06T11:40:59.839Z,51.77
2023-05-06T11:41:59.924Z,50.44
2023-05-06T11:42:59.919Z,50.42
2023-05-06T11:44:00.003Z,47.93
2023-05-06T11:45:00.028Z,39.04
2023-05-06T11:46:00.084Z,32.95
2023-05-06T11:47:00.074Z,35.22
2023-05-06T11:48:00.231Z,37.17
2023-05-06T11:49:00.133Z,30.28
2023-05-06T11:50:00.202Z,32.07
2023-05-06T11:51:00.210Z,31.53
2023-05-06T11:52:00.290Z,31.76
2023-05-06T11:53:00.323Z,32.49
2023-05-06T11:54:00.370Z,34.44
2023-05-06T11:55:00.371Z,28.37
2023-05-06T11:56:00.413Z,30.51
2023-05-06T11:57:00.413Z,32.93
2023-05-06T11:58:00.480Z,34.50
2023-05-06T11:59:00.479Z,32.93
2023-05-06T12:00:00.550Z,37.37
2023-05-06T12:01:00.654Z,36.91
2023-05-06T12:02:00.754Z,34.64
2023-05-06T12:03:00.840Z,36.40
2023-05-06T12:04:00.960Z,35.51
2023-05-06T12:05:00.859Z,37.67
2023-05-06T12:06:00.870Z,40.39
2023-05-06T12:07:00.880Z,36.57
2023-05-06T12:08:00.917Z,34.68
2023-05-06T12:09:00.949Z,35.52
2023-05-06T12:10:00.942Z,36.06
2023-05-06T12:11:00.963Z,33.35
2023-05-06T12:12:00.985Z,32.63
2023-05-06T12:13:01.026Z,25.00
2023-05-06T12:14:01.154Z,25.22
2023-05-06T12:15:01.135Z,25.48
2023-05-06T12:16:01.255Z,27.87
2023-05-06T12:17:01.298Z,25.08
2023-05-06T12:18:01.348Z,25.32
2023-05-06T12:19:01.376Z,26.07
2023-05-06T12:20:01.413Z,30.98
2023-05-06T12:21:01.412Z,25.75
2023-05-06T12:22:01.468Z,26.12
2023-05-06T12:23:01.513Z,25.18
2023-05-06T12:24:01.593Z,30.24
2023-05-06T12:25:01.644Z,30.69
2023-05-06T12:26:01.736Z,31.20
2023-05-06T12:27:01.755Z,33.38
2023-05-06T12:28:01.764Z,46.47
2023-05-06T12:29:01.778Z,42.45
2023-05-06T12:30:01.902Z,30.94
2023-05-06T12:31:01.805Z,35.64
2023-05-06T12:32:01.923Z,32.04
2023-05-06T12:33:01.903Z,42.96
2023-05-06T12:34:01.965Z,28.97
2023-05-06T12:35:02.053Z,27.56
2023-05-06T12:36:02.083Z,25.27
2023-05-06T12:37:02.107Z,26.64
2023-05-06T12:38:02.146Z,25.75
2023-05-06T12:39:02.179Z,27.29
2023-05-06T12:40:02.189Z,33.16
2023-05-06T12:41:02.266Z,34.18
2023-05-06T12:42:02.257Z,37.40
2023-05-06T12:43:02.350Z,41.81
2023-05-06T12:44:02.375Z,38.79
2023-05-06T12:45:02.358Z,39.50
2023-05-06T12:46:02.636Z,32.48
2023-05-06T12:47:02.408Z,35.17
2023-05-06T12:48:02.504Z,29.72